createdAt,value
2016-12-16T00:00:16.016Z,962.93
2016-12-16T00:00:42.001Z,962.93
2016-12-16T00:01:07.990Z,962.92
2016-12-16T00:01:33.975Z,962.94
2016-12-16T00:01:59.959Z,962.96
2016-12-16T00:02:25.958Z,962.92
2016-12-16T00:02:51.942Z,962.89
2016-12-16T00:03:17.926Z,962.95
2016-12-16T00:03:43.909Z,962.91
2016-12-16T00:04:09.894Z,962.91
2016-12-16T00:04:35.900Z,962.95
2016-12-16T00:05:01.890Z,962.93
2016-12-16T00:05:27.871Z,962.95
2016-12-16T00:05:53.864Z,962.92
2016-12-16T00:06:19.850Z,962.94
2016-12-16T00:06:45.883Z,962.95
2016-12-16T00:07:11.869Z,962.96
2016-12-16T00:07:37.855Z,962.96
2016-12-16T00:08:03.840Z,962.93
2016-12-16T00:08:29.824Z,962.97
2016-12-16T00:08:55.813Z,962.96
2016-12-16T00:09:21.808Z,962.95
2016-12-16T00:09:47.794Z,962.92
2016-12-16T00:10:13.781Z,962.93
2016-12-16T00:10:39.773Z,962.92
2016-12-16T00:11:05.752Z,962.93
2016-12-16T00:11:31.745Z,962.93
2016-12-16T00:11:57.729Z,962.89
2016-12-16T00:12:23.714Z,962.95
2016-12-16T00:12:49.697Z,962.91
2016-12-16T00:13:15.679Z,962.9
2016-12-16T00:13:41.671Z,962.92
2016-12-16T00:14:07.648Z,962.91
2016-12-16T00:14:33.632Z,962.89
2016-12-16T00:14:59.616Z,962.92
2016-12-16T00:15:25.597Z,962.91
2016-12-16T00:15:51.591Z,962.9
2016-12-16T00:16:17.581Z,962.9
2016-12-16T00:16:43.614Z,962.91
2016-12-16T00:17:09.600Z,962.89
2016-12-16T00:17:35.584Z,962.93
2016-12-16T00:18:01.583Z,962.9
2016-12-16T00:18:27.567Z,962.93
2016-12-16T00:18:53.550Z,962.91
2016-12-16T00:19:19.532Z,962.9
2016-12-16T00:19:45.517Z,962.9
2016-12-16T00:20:11.500Z,962.95
2016-12-16T00:20:37.486Z,962.92
2016-12-16T00:21:03.465Z,962.9
2016-12-16T00:21:29.451Z,962.92
2016-12-16T00:21:55.464Z,962.95
2016-12-16T00:22:21.482Z,962.93
2016-12-16T00:22:47.469Z,962.89
2016-12-16T00:23:13.453Z,962.95
2016-12-16T00:23:39.439Z,962.91
2016-12-16T00:24:05.422Z,962.89
2016-12-16T00:24:31.405Z,962.91
2016-12-16T00:24:57.394Z,962.98
2016-12-16T00:25:23.396Z,962.92
2016-12-16T00:25:49.391Z,962.93
2016-12-16T00:26:15.387Z,962.92
2016-12-16T00:26:41.371Z,962.98
2016-12-16T00:27:07.357Z,962.91
2016-12-16T00:27:33.337Z,962.95
2016-12-16T00:27:59.321Z,962.94
2016-12-16T00:28:25.308Z,962.94
2016-12-16T00:28:51.294Z,962.96
2016-12-16T00:29:17.278Z,962.94
2016-12-16T00:29:43.262Z,962.92
2016-12-16T00:30:09.246Z,962.94
2016-12-16T00:30:35.231Z,962.95
2016-12-16T00:31:01.214Z,962.97
2016-12-16T00:31:27.206Z,962.94
2016-12-16T00:31:53.234Z,962.95
2016-12-16T00:32:19.217Z,962.97
2016-12-16T00:32:45.207Z,962.93
2016-12-16T00:33:11.189Z,962.96
2016-12-16T00:33:37.175Z,962.92
2016-12-16T00:34:03.189Z,962.9
2016-12-16T00:34:29.177Z,962.9
2016-12-16T00:34:55.163Z,962.9
2016-12-16T00:35:21.147Z,962.91
2016-12-16T00:35:47.133Z,962.88
2016-12-16T00:36:13.116Z,962.92
2016-12-16T00:36:39.100Z,962.9
2016-12-16T00:37:05.133Z,962.9
2016-12-16T00:37:31.116Z,962.93
2016-12-16T00:37:57.098Z,962.91
2016-12-16T00:38:23.085Z,962.94
2016-12-16T00:38:49.081Z,962.93
2016-12-16T00:39:15.087Z,962.97
2016-12-16T00:39:41.105Z,962.93
2016-12-16T00:40:07.055Z,962.91
2016-12-16T00:40:33.035Z,962.94
2016-12-16T00:40:59.032Z,962.97
2016-12-16T00:41:25.036Z,962.95
2016-12-16T00:41:51.028Z,962.95
2016-12-16T00:42:17.006Z,962.99
2016-12-16T00:42:42.979Z,962.97
2016-12-16T00:43:08.963Z,962.96
2016-12-16T00:43:34.948Z,962.95
2016-12-16T00:44:00.932Z,962.97
2016-12-16T00:44:26.916Z,962.99
2016-12-16T00:44:52.924Z,962.98
2016-12-16T00:45:18.905Z,962.98
2016-12-16T00:45:44.891Z,963
2016-12-16T00:46:10.869Z,962.98
2016-12-16T00:46:36.853Z,962.96
2016-12-16T00:47:02.894Z,962.97
2016-12-16T00:47:28.877Z,962.98
2016-12-16T00:47:54.861Z,963
2016-12-16T00:48:20.843Z,962.98
2016-12-16T00:48:46.832Z,962.96
2016-12-16T00:49:12.818Z,963
2016-12-16T00:49:38.805Z,963.02
2016-12-16T00:50:04.789Z,963.01
2016-12-16T00:50:30.772Z,963
2016-12-16T00:50:56.760Z,963.05
2016-12-16T00:51:22.743Z,962.95
2016-12-16T00:51:48.730Z,963
2016-12-16T00:52:14.714Z,963.01
2016-12-16T00:52:41.596Z,962.99
2016-12-16T00:53:10.331Z,962.97
2016-12-16T00:53:38.970Z,962.99
2016-12-16T00:54:07.300Z,963.01
2016-12-16T00:54:33.283Z,963
2016-12-16T00:54:59.279Z,962.96
2016-12-16T00:55:25.260Z,963.03
2016-12-16T00:55:51.256Z,963.05
2016-12-16T00:56:17.246Z,963.01
2016-12-16T00:56:43.241Z,963.03
2016-12-16T00:57:09.231Z,963.03
2016-12-16T00:57:35.215Z,963.06
2016-12-16T00:58:01.199Z,963.06
2016-12-16T00:58:27.182Z,963.09
2016-12-16T00:58:53.173Z,963.08
2016-12-16T00:59:19.157Z,963.04
2016-12-16T00:59:45.143Z,963.07
2016-12-16T01:00:11.127Z,963.11
2016-12-16T01:00:37.117Z,963.09
2016-12-16T01:01:03.098Z,963.06
2016-12-16T01:01:29.094Z,963.1
2016-12-16T01:01:55.130Z,963.11
2016-12-16T01:02:21.190Z,963.11
2016-12-16T01:02:47.134Z,963.09
2016-12-16T01:03:13.117Z,963.1
2016-12-16T01:03:39.100Z,963.11
2016-12-16T01:04:05.084Z,963.12
2016-12-16T01:04:31.073Z,963.15
2016-12-16T01:04:57.114Z,963.15
2016-12-16T01:05:23.060Z,963.14
2016-12-16T01:05:49.044Z,963.16
2016-12-16T01:06:15.028Z,963.1
2016-12-16T01:06:41.026Z,963.16
2016-12-16T01:07:07.020Z,963.15
2016-12-16T01:07:33.003Z,963.19
2016-12-16T01:07:58.984Z,963.17
2016-12-16T01:08:24.968Z,963.17
2016-12-16T01:08:50.975Z,963.2
2016-12-16T01:09:16.958Z,963.22
2016-12-16T01:09:42.943Z,963.23
2016-12-16T01:10:08.925Z,963.22
2016-12-16T01:10:34.910Z,963.24
2016-12-16T01:11:00.895Z,963.2
2016-12-16T01:11:26.882Z,963.24
2016-12-16T01:11:52.871Z,963.25
2016-12-16T01:12:18.868Z,963.25
2016-12-16T01:12:44.846Z,963.24
2016-12-16T01:13:10.834Z,963.27
2016-12-16T01:13:36.870Z,963.26
2016-12-16T01:14:02.856Z,963.26
2016-12-16T01:14:28.843Z,963.29
2016-12-16T01:14:54.837Z,963.28
2016-12-16T01:15:20.815Z,963.26
2016-12-16T01:15:46.804Z,963.26
2016-12-16T01:16:12.790Z,963.25
2016-12-16T01:16:38.792Z,963.27
2016-12-16T01:17:04.813Z,963.26
2016-12-16T01:17:30.801Z,963.27
2016-12-16T01:17:56.801Z,963.29
2016-12-16T01:18:22.795Z,963.27
2016-12-16T01:18:48.798Z,963.28
2016-12-16T01:19:14.810Z,963.26
2016-12-16T01:19:40.802Z,963.26
2016-12-16T01:20:06.792Z,963.28
2016-12-16T01:20:32.772Z,963.25
2016-12-16T01:20:58.757Z,963.27
2016-12-16T01:21:24.740Z,963.26
2016-12-16T01:21:50.723Z,963.26
2016-12-16T01:22:16.707Z,963.29
2016-12-16T01:22:42.691Z,963.29
2016-12-16T01:23:08.687Z,963.27
2016-12-16T01:23:34.672Z,963.33
2016-12-16T01:24:00.654Z,963.28
2016-12-16T01:24:26.637Z,963.29
2016-12-16T01:24:52.618Z,963.28
2016-12-16T01:25:18.601Z,963.3
2016-12-16T01:25:44.589Z,963.3
2016-12-16T01:26:10.572Z,963.32
2016-12-16T01:26:36.554Z,963.32
2016-12-16T01:27:02.536Z,963.31
2016-12-16T01:27:28.520Z,963.34
2016-12-16T01:27:54.505Z,963.34
2016-12-16T01:28:20.495Z,963.32
2016-12-16T01:28:46.517Z,963.33
2016-12-16T01:29:12.501Z,963.35
2016-12-16T01:29:38.522Z,963.36
2016-12-16T01:30:04.512Z,963.35
2016-12-16T01:30:30.499Z,963.35
2016-12-16T01:30:56.499Z,963.38
2016-12-16T01:31:22.486Z,963.4
2016-12-16T01:31:48.470Z,963.36
2016-12-16T01:32:14.458Z,963.39
2016-12-16T01:32:40.441Z,963.37
2016-12-16T01:33:06.426Z,963.39
2016-12-16T01:33:32.411Z,963.35
2016-12-16T01:33:58.398Z,963.38
2016-12-16T01:34:24.385Z,963.36
2016-12-16T01:34:50.370Z,963.4
2016-12-16T01:35:16.390Z,963.39
2016-12-16T01:35:42.373Z,963.38
2016-12-16T01:36:08.353Z,963.4
2016-12-16T01:36:34.338Z,963.43
2016-12-16T01:37:00.339Z,963.4
2016-12-16T01:37:26.323Z,963.39
2016-12-16T01:37:52.312Z,963.43
2016-12-16T01:38:18.296Z,963.4
2016-12-16T01:38:44.278Z,963.39
2016-12-16T01:39:10.265Z,963.4
2016-12-16T01:39:36.250Z,963.41
2016-12-16T01:40:02.234Z,963.42
2016-12-16T01:40:28.218Z,963.43
2016-12-16T01:40:54.201Z,963.41
2016-12-16T01:41:20.187Z,963.39
2016-12-16T01:41:46.172Z,963.37
2016-12-16T01:42:12.158Z,963.42
2016-12-16T01:42:38.144Z,963.44
2016-12-16T01:43:04.132Z,963.41
2016-12-16T01:43:30.123Z,963.45
2016-12-16T01:43:56.118Z,963.39
2016-12-16T01:44:22.096Z,963.42
2016-12-16T01:44:48.077Z,963.39
2016-12-16T01:45:14.063Z,963.42
2016-12-16T01:45:40.049Z,963.42
2016-12-16T01:46:06.034Z,963.44
2016-12-16T01:46:32.017Z,963.42
2016-12-16T01:46:58.004Z,963.41
2016-12-16T01:47:23.988Z,963.4
2016-12-16T01:47:49.972Z,963.41
2016-12-16T01:48:15.959Z,963.4
2016-12-16T01:48:41.941Z,963.38
2016-12-16T01:49:07.931Z,963.41
2016-12-16T01:49:33.915Z,963.39
2016-12-16T01:49:59.896Z,963.4
2016-12-16T01:50:25.885Z,963.36
2016-12-16T01:50:51.874Z,963.42
2016-12-16T01:51:17.881Z,963.38
2016-12-16T01:51:43.866Z,963.41
2016-12-16T01:52:09.859Z,963.38
2016-12-16T01:52:35.849Z,963.4
2016-12-16T01:53:01.857Z,963.42
2016-12-16T01:53:27.872Z,963.37
2016-12-16T01:53:53.856Z,963.38
2016-12-16T01:54:19.837Z,963.36
2016-12-16T01:54:45.823Z,963.41
2016-12-16T01:55:11.809Z,963.35
2016-12-16T01:55:37.794Z,963.37
2016-12-16T01:56:03.776Z,963.37
2016-12-16T01:56:29.761Z,963.34
2016-12-16T01:56:55.752Z,963.37
2016-12-16T01:57:21.742Z,963.36
2016-12-16T01:57:47.721Z,963.36
2016-12-16T01:58:13.705Z,963.36
2016-12-16T01:58:39.689Z,963.34
2016-12-16T01:59:05.677Z,963.36
2016-12-16T01:59:31.661Z,963.37
2016-12-16T01:59:57.643Z,963.39
2016-12-16T02:00:23.638Z,963.36
2016-12-16T02:00:49.623Z,963.36
2016-12-16T02:01:15.608Z,963.37
2016-12-16T02:01:41.591Z,963.38
2016-12-16T02:02:07.577Z,963.34
2016-12-16T02:02:33.565Z,963.38
2016-12-16T02:02:59.564Z,963.32
2016-12-16T02:03:25.552Z,963.37
2016-12-16T02:03:51.540Z,963.33
2016-12-16T02:04:17.521Z,963.33
2016-12-16T02:04:43.508Z,963.34
2016-12-16T02:05:09.490Z,963.34
2016-12-16T02:05:35.476Z,963.33
2016-12-16T02:06:01.458Z,963.34
2016-12-16T02:06:27.442Z,963.35
2016-12-16T02:06:53.422Z,963.35
2016-12-16T02:07:19.407Z,963.31
2016-12-16T02:07:45.392Z,963.32
2016-12-16T02:08:11.375Z,963.37
2016-12-16T02:08:37.365Z,963.34
2016-12-16T02:09:03.359Z,963.34
2016-12-16T02:09:29.348Z,963.33
2016-12-16T02:09:55.332Z,963.33
2016-12-16T02:10:21.316Z,963.3
2016-12-16T02:10:47.300Z,963.36
2016-12-16T02:11:13.284Z,963.35
2016-12-16T02:11:39.282Z,963.31
2016-12-16T02:12:05.260Z,963.33
2016-12-16T02:12:31.246Z,963.34
2016-12-16T02:12:57.230Z,963.35
2016-12-16T02:13:23.212Z,963.36
2016-12-16T02:13:49.197Z,963.36
2016-12-16T02:14:15.183Z,963.38
2016-12-16T02:14:41.183Z,963.35
2016-12-16T02:15:07.175Z,963.39
2016-12-16T02:15:33.169Z,963.34
2016-12-16T02:15:59.155Z,963.35
2016-12-16T02:16:25.136Z,963.37
2016-12-16T02:16:51.124Z,963.38
2016-12-16T02:17:17.107Z,963.38
2016-12-16T02:17:43.094Z,963.39
2016-12-16T02:18:09.081Z,963.36
2016-12-16T02:18:35.078Z,963.33
2016-12-16T02:19:01.062Z,963.39
2016-12-16T02:19:27.052Z,963.38
2016-12-16T02:19:53.032Z,963.33
2016-12-16T02:20:19.014Z,963.37
2016-12-16T02:20:45.004Z,963.35
2016-12-16T02:21:10.992Z,963.39
2016-12-16T02:21:36.980Z,963.36
2016-12-16T02:22:02.964Z,963.38
2016-12-16T02:22:28.948Z,963.36
2016-12-16T02:22:54.935Z,963.37
2016-12-16T02:23:20.918Z,963.35
2016-12-16T02:23:46.906Z,963.33
2016-12-16T02:24:12.890Z,963.37
2016-12-16T02:24:38.874Z,963.35
2016-12-16T02:25:04.869Z,963.34
2016-12-16T02:25:30.858Z,963.3
2016-12-16T02:25:56.834Z,963.36
2016-12-16T02:26:22.835Z,963.34
2016-12-16T02:26:48.839Z,963.34
2016-12-16T02:27:14.826Z,963.35
2016-12-16T02:27:40.849Z,963.34
2016-12-16T02:28:06.844Z,963.33
2016-12-16T02:28:32.825Z,963.35
2016-12-16T02:28:58.811Z,963.36
2016-12-16T02:29:24.798Z,963.38
2016-12-16T02:29:50.797Z,963.35
2016-12-16T02:30:16.779Z,963.36
2016-12-16T02:30:42.764Z,963.37
2016-12-16T02:31:08.750Z,963.37
2016-12-16T02:31:34.747Z,963.36
2016-12-16T02:32:00.736Z,963.36
2016-12-16T02:32:26.712Z,963.37
2016-12-16T02:32:52.696Z,963.4
2016-12-16T02:33:18.680Z,963.35
2016-12-16T02:33:44.665Z,963.41
2016-12-16T02:34:10.649Z,963.41
2016-12-16T02:34:36.632Z,963.36
2016-12-16T02:35:02.620Z,963.37
2016-12-16T02:35:28.618Z,963.4
2016-12-16T02:35:54.608Z,963.37
2016-12-16T02:36:20.604Z,963.34
2016-12-16T02:36:46.589Z,963.36
2016-12-16T02:37:12.574Z,963.33
2016-12-16T02:37:38.559Z,963.35
2016-12-16T02:38:04.543Z,963.32
2016-12-16T02:38:30.525Z,963.28
2016-12-16T02:38:56.512Z,963.34
2016-12-16T02:39:22.494Z,963.34
2016-12-16T02:39:48.481Z,963.31
2016-12-16T02:40:14.466Z,963.36
2016-12-16T02:40:40.449Z,963.33
2016-12-16T02:41:06.435Z,963.35
2016-12-16T02:41:32.426Z,963.33
2016-12-16T02:41:58.413Z,963.37
2016-12-16T02:42:24.399Z,963.35
2016-12-16T02:42:50.385Z,963.32
2016-12-16T02:43:16.371Z,963.36
2016-12-16T02:43:42.358Z,963.37
2016-12-16T02:44:08.340Z,963.39
2016-12-16T02:44:34.330Z,963.35
2016-12-16T02:45:00.312Z,963.35
2016-12-16T02:45:26.296Z,963.36
2016-12-16T02:45:52.282Z,963.37
2016-12-16T02:46:18.271Z,963.36
2016-12-16T02:46:44.259Z,963.36
2016-12-16T02:47:10.237Z,963.36
2016-12-16T02:47:36.236Z,963.4
2016-12-16T02:48:02.223Z,963.37
2016-12-16T02:48:28.207Z,963.4
2016-12-16T02:48:54.190Z,963.39
2016-12-16T02:49:20.174Z,963.37
2016-12-16T02:49:46.160Z,963.38
2016-12-16T02:50:12.183Z,963.4
2016-12-16T02:50:38.167Z,963.41
2016-12-16T02:51:04.154Z,963.37
2016-12-16T02:51:30.138Z,963.38
2016-12-16T02:51:56.124Z,963.38
2016-12-16T02:52:22.107Z,963.4
2016-12-16T02:52:48.094Z,963.41
2016-12-16T02:53:14.074Z,963.4
2016-12-16T02:53:40.059Z,963.42
2016-12-16T02:54:06.048Z,963.4
2016-12-16T02:54:32.035Z,963.41
2016-12-16T02:54:58.021Z,963.41
2016-12-16T02:55:24.005Z,963.41
2016-12-16T02:55:49.987Z,963.37
2016-12-16T02:56:15.982Z,963.38
2016-12-16T02:56:41.968Z,963.37
2016-12-16T02:57:07.950Z,963.38
2016-12-16T02:57:33.933Z,963.36
2016-12-16T02:57:59.917Z,963.34
2016-12-16T02:58:25.899Z,963.33
2016-12-16T02:58:51.881Z,963.33
2016-12-16T02:59:17.868Z,963.34
2016-12-16T02:59:43.854Z,963.33
2016-12-16T03:00:09.862Z,963.34
2016-12-16T03:00:35.860Z,963.32
2016-12-16T03:01:01.843Z,963.34
2016-12-16T03:01:27.847Z,963.32
2016-12-16T03:01:53.846Z,963.37
2016-12-16T03:02:19.846Z,963.37
2016-12-16T03:02:45.846Z,963.34
2016-12-16T03:03:11.824Z,963.38
2016-12-16T03:03:37.810Z,963.35
2016-12-16T03:04:03.796Z,963.36
2016-12-16T03:04:29.782Z,963.36
2016-12-16T03:04:55.767Z,963.33
2016-12-16T03:05:21.755Z,963.36
2016-12-16T03:05:47.749Z,963.38
2016-12-16T03:06:13.732Z,963.38
2016-12-16T03:06:39.719Z,963.34
2016-12-16T03:07:05.717Z,963.38
2016-12-16T03:07:31.700Z,963.35
2016-12-16T03:07:57.684Z,963.4
2016-12-16T03:08:23.672Z,963.39
2016-12-16T03:08:49.669Z,963.38
2016-12-16T03:09:15.657Z,963.34
2016-12-16T03:09:41.644Z,963.36
2016-12-16T03:10:07.627Z,963.35
2016-12-16T03:10:33.612Z,963.37
2016-12-16T03:10:59.601Z,963.38
2016-12-16T03:11:25.580Z,963.37
2016-12-16T03:11:51.563Z,963.36
2016-12-16T03:12:17.548Z,963.35
2016-12-16T03:12:43.533Z,963.34
2016-12-16T03:13:09.521Z,963.35
2016-12-16T03:13:35.511Z,963.37
2016-12-16T03:14:01.491Z,963.35
2016-12-16T03:14:27.478Z,963.37
2016-12-16T03:14:53.470Z,963.34
2016-12-16T03:15:19.453Z,963.37
2016-12-16T03:15:45.438Z,963.38
2016-12-16T03:16:11.424Z,963.35
2016-12-16T03:16:37.406Z,963.4
2016-12-16T03:17:03.388Z,963.34
2016-12-16T03:17:29.372Z,963.37
2016-12-16T03:17:55.358Z,963.38
2016-12-16T03:18:21.344Z,963.38
2016-12-16T03:18:47.323Z,963.39
2016-12-16T03:19:13.304Z,963.37
2016-12-16T03:19:39.298Z,963.38
2016-12-16T03:20:05.289Z,963.38
2016-12-16T03:20:31.275Z,963.37
2016-12-16T03:20:57.264Z,963.41
2016-12-16T03:21:23.244Z,963.41
2016-12-16T03:21:49.231Z,963.37
2016-12-16T03:22:15.214Z,963.4
2016-12-16T03:22:41.198Z,963.38
2016-12-16T03:23:07.183Z,963.4
2016-12-16T03:23:33.168Z,963.41
2016-12-16T03:23:59.151Z,963.39
2016-12-16T03:24:25.133Z,963.39
2016-12-16T03:24:51.124Z,963.39
2016-12-16T03:25:17.104Z,963.44
2016-12-16T03:25:43.088Z,963.39
2016-12-16T03:26:09.086Z,963.41
2016-12-16T03:26:35.072Z,963.38
2016-12-16T03:27:01.057Z,963.39
2016-12-16T03:27:27.040Z,963.39
2016-12-16T03:27:53.024Z,963.41
2016-12-16T03:28:19.008Z,963.41
2016-12-16T03:28:44.997Z,963.39
2016-12-16T03:29:10.979Z,963.38
2016-12-16T03:29:36.962Z,963.39
2016-12-16T03:30:02.945Z,963.42
2016-12-16T03:30:28.929Z,963.38
2016-12-16T03:30:54.913Z,963.41
2016-12-16T03:31:20.904Z,963.35
2016-12-16T03:31:46.894Z,963.41
2016-12-16T03:32:12.878Z,963.43
2016-12-16T03:32:38.907Z,963.41
2016-12-16T03:33:04.898Z,963.35
2016-12-16T03:33:30.895Z,963.41
2016-12-16T03:33:56.870Z,963.44
2016-12-16T03:34:22.856Z,963.38
2016-12-16T03:34:48.843Z,963.41
2016-12-16T03:35:14.833Z,963.4
2016-12-16T03:35:40.815Z,963.41
2016-12-16T03:36:06.809Z,963.39
2016-12-16T03:36:32.827Z,963.43
2016-12-16T03:36:58.828Z,963.44
2016-12-16T03:37:24.815Z,963.45
2016-12-16T03:37:50.806Z,963.42
2016-12-16T03:38:16.798Z,963.43
2016-12-16T03:38:42.772Z,963.41
2016-12-16T03:39:08.757Z,963.42
2016-12-16T03:39:34.774Z,963.42
2016-12-16T03:40:00.758Z,963.44
2016-12-16T03:40:26.743Z,963.42
2016-12-16T03:40:52.725Z,963.42
2016-12-16T03:41:18.726Z,963.41
2016-12-16T03:41:44.728Z,963.42
2016-12-16T03:42:10.722Z,963.43
2016-12-16T03:42:36.713Z,963.45
2016-12-16T03:43:02.702Z,963.44
2016-12-16T03:43:28.687Z,963.43
2016-12-16T03:43:54.696Z,963.43
2016-12-16T03:44:20.684Z,963.42
2016-12-16T03:44:46.668Z,963.43
2016-12-16T03:45:12.654Z,963.44
2016-12-16T03:45:38.634Z,963.43
2016-12-16T03:46:04.617Z,963.43
2016-12-16T03:46:30.601Z,963.4
2016-12-16T03:46:56.582Z,963.39
2016-12-16T03:47:22.570Z,963.42
2016-12-16T03:47:48.555Z,963.44
2016-12-16T03:48:14.541Z,963.39
2016-12-16T03:48:40.534Z,963.42
2016-12-16T03:49:06.523Z,963.39
2016-12-16T03:49:32.508Z,963.43
2016-12-16T03:49:58.492Z,963.42
2016-12-16T03:50:24.476Z,963.42
2016-12-16T03:50:50.461Z,963.42
2016-12-16T03:51:16.447Z,963.44
2016-12-16T03:51:42.431Z,963.43
2016-12-16T03:52:08.415Z,963.44
2016-12-16T03:52:34.397Z,963.47
2016-12-16T03:53:00.385Z,963.48
2016-12-16T03:53:26.367Z,963.46
2016-12-16T03:53:52.352Z,963.47
2016-12-16T03:54:18.347Z,963.51
2016-12-16T03:54:44.332Z,963.48
2016-12-16T03:55:10.316Z,963.48
2016-12-16T03:55:36.301Z,963.48
2016-12-16T03:56:02.286Z,963.51
2016-12-16T03:56:28.272Z,963.52
2016-12-16T03:56:54.254Z,963.49
2016-12-16T03:57:20.237Z,963.5
2016-12-16T03:57:46.325Z,963.51
2016-12-16T03:58:12.308Z,963.52
2016-12-16T03:58:38.289Z,963.52
2016-12-16T03:59:04.276Z,963.48
2016-12-16T03:59:30.261Z,963.53
2016-12-16T03:59:56.246Z,963.51
2016-12-16T04:00:22.231Z,963.54
2016-12-16T04:00:48.214Z,963.54
2016-12-16T04:01:14.197Z,963.54
2016-12-16T04:01:40.182Z,963.52
2016-12-16T04:02:06.165Z,963.53
2016-12-16T04:02:32.157Z,963.54
2016-12-16T04:02:58.146Z,963.54
2016-12-16T04:03:24.131Z,963.53
2016-12-16T04:03:50.114Z,963.56
2016-12-16T04:04:16.099Z,963.56
2016-12-16T04:04:42.124Z,963.55
2016-12-16T04:05:08.110Z,963.55
2016-12-16T04:05:34.093Z,963.57
2016-12-16T04:06:00.078Z,963.54
2016-12-16T04:06:26.064Z,963.54
2016-12-16T04:06:52.050Z,963.54
2016-12-16T04:07:18.037Z,963.55
2016-12-16T04:07:44.018Z,963.55
2016-12-16T04:08:10.004Z,963.55
2016-12-16T04:08:35.994Z,963.55
2016-12-16T04:09:01.977Z,963.54
2016-12-16T04:09:27.965Z,963.57
2016-12-16T04:09:53.955Z,963.57
2016-12-16T04:10:19.958Z,963.53
2016-12-16T04:10:45.940Z,963.57
2016-12-16T04:11:11.921Z,963.58
2016-12-16T04:11:37.924Z,963.59
2016-12-16T04:12:03.922Z,963.56
2016-12-16T04:12:29.913Z,963.56
2016-12-16T04:12:55.887Z,963.6
2016-12-16T04:13:21.883Z,963.57
2016-12-16T04:13:47.869Z,963.59
2016-12-16T04:14:13.850Z,963.6
2016-12-16T04:14:39.834Z,963.57
2016-12-16T04:15:05.817Z,963.63
2016-12-16T04:15:31.806Z,963.61
2016-12-16T04:15:57.787Z,963.63
2016-12-16T04:16:23.779Z,963.6
2016-12-16T04:16:49.766Z,963.63
2016-12-16T04:17:15.748Z,963.63
2016-12-16T04:17:41.735Z,963.62
2016-12-16T04:18:07.720Z,963.62
2016-12-16T04:18:33.707Z,963.62
2016-12-16T04:18:59.691Z,963.6
2016-12-16T04:19:25.675Z,963.63
2016-12-16T04:19:51.658Z,963.64
2016-12-16T04:20:17.643Z,963.61
2016-12-16T04:20:43.628Z,963.64
2016-12-16T04:21:09.614Z,963.61
2016-12-16T04:21:35.600Z,963.61
2016-12-16T04:22:01.588Z,963.67
2016-12-16T04:22:27.575Z,963.65
2016-12-16T04:22:53.560Z,963.62
2016-12-16T04:23:19.543Z,963.68
2016-12-16T04:23:45.532Z,963.64
2016-12-16T04:24:11.511Z,963.69
2016-12-16T04:24:37.495Z,963.71
2016-12-16T04:25:03.479Z,963.71
2016-12-16T04:25:29.464Z,963.69
2016-12-16T04:25:55.447Z,963.7
2016-12-16T04:26:21.431Z,963.74
2016-12-16T04:26:47.414Z,963.75
2016-12-16T04:27:13.398Z,963.74
2016-12-16T04:27:39.395Z,963.71
2016-12-16T04:28:05.385Z,963.75
2016-12-16T04:28:31.367Z,963.75
2016-12-16T04:28:57.354Z,963.78
2016-12-16T04:29:23.338Z,963.76
2016-12-16T04:29:49.324Z,963.73
2016-12-16T04:30:15.307Z,963.78
2016-12-16T04:30:41.293Z,963.77
2016-12-16T04:31:07.275Z,963.8
2016-12-16T04:31:33.262Z,963.77
2016-12-16T04:31:59.247Z,963.78
2016-12-16T04:32:25.230Z,963.74
2016-12-16T04:32:51.217Z,963.76
2016-12-16T04:33:17.205Z,963.76
2016-12-16T04:33:43.194Z,963.78
2016-12-16T04:34:09.178Z,963.76
2016-12-16T04:34:35.171Z,963.76
2016-12-16T04:35:01.162Z,963.78
2016-12-16T04:35:27.143Z,963.79
2016-12-16T04:35:53.148Z,963.77
2016-12-16T04:36:19.138Z,963.8
2016-12-16T04:36:45.121Z,963.78
2016-12-16T04:37:11.107Z,963.77
2016-12-16T04:37:37.096Z,963.81
2016-12-16T04:38:03.137Z,963.76
2016-12-16T04:38:29.121Z,963.8
2016-12-16T04:38:55.104Z,963.79
2016-12-16T04:39:21.088Z,963.74
2016-12-16T04:39:47.071Z,963.74
2016-12-16T04:40:13.055Z,963.73
2016-12-16T04:40:39.041Z,963.78
2016-12-16T04:41:05.024Z,963.78
2016-12-16T04:41:31.009Z,963.77
2016-12-16T04:41:57.004Z,963.79
2016-12-16T04:42:22.984Z,963.83
2016-12-16T04:42:48.971Z,963.8
2016-12-16T04:43:14.956Z,963.84
2016-12-16T04:43:40.944Z,963.81
2016-12-16T04:44:06.941Z,963.81
2016-12-16T04:44:32.924Z,963.81
2016-12-16T04:44:58.951Z,963.83
2016-12-16T04:45:24.947Z,963.81
2016-12-16T04:45:50.928Z,963.81
2016-12-16T04:46:16.924Z,963.82
2016-12-16T04:46:42.913Z,963.8
2016-12-16T04:47:08.898Z,963.85
2016-12-16T04:47:34.884Z,963.83
2016-12-16T04:48:00.883Z,963.84
2016-12-16T04:48:26.860Z,963.83
2016-12-16T04:48:52.840Z,963.86
2016-12-16T04:49:18.832Z,963.84
2016-12-16T04:49:44.821Z,963.85
2016-12-16T04:50:11.768Z,963.85
2016-12-16T04:50:38.034Z,963.88
2016-12-16T04:51:04.022Z,963.9
2016-12-16T04:51:30.007Z,963.85
2016-12-16T04:51:55.991Z,963.88
2016-12-16T04:52:21.977Z,963.88
2016-12-16T04:52:47.967Z,963.9
2016-12-16T04:53:13.954Z,963.86
2016-12-16T04:53:39.953Z,963.85
2016-12-16T04:54:05.933Z,963.86
2016-12-16T04:54:31.917Z,963.88
2016-12-16T04:54:57.901Z,963.89
2016-12-16T04:55:23.886Z,963.86
2016-12-16T04:55:49.869Z,963.9
2016-12-16T04:56:15.854Z,963.92
2016-12-16T04:56:41.844Z,963.93
2016-12-16T04:57:07.843Z,963.9
2016-12-16T04:57:33.835Z,963.87
2016-12-16T04:57:59.815Z,963.91
2016-12-16T04:58:25.812Z,963.94
2016-12-16T04:58:51.800Z,963.92
2016-12-16T04:59:17.775Z,963.92
2016-12-16T04:59:43.761Z,963.92
2016-12-16T05:00:09.746Z,963.93
2016-12-16T05:00:35.728Z,963.92
2016-12-16T05:01:01.714Z,963.91
2016-12-16T05:01:27.698Z,963.91
2016-12-16T05:01:53.685Z,963.89
2016-12-16T05:02:19.676Z,963.92
2016-12-16T05:02:45.663Z,963.92
2016-12-16T05:03:11.653Z,963.93
2016-12-16T05:03:37.644Z,963.93
2016-12-16T05:04:03.643Z,963.97
2016-12-16T05:04:29.627Z,963.95
2016-12-16T05:04:55.613Z,963.95
2016-12-16T05:05:21.593Z,963.97
2016-12-16T05:05:47.577Z,963.95
2016-12-16T05:06:13.563Z,963.96
2016-12-16T05:06:39.545Z,963.95
2016-12-16T05:07:05.529Z,963.98
2016-12-16T05:07:31.513Z,963.96
2016-12-16T05:07:57.497Z,963.96
2016-12-16T05:08:23.531Z,963.96
2016-12-16T05:08:49.515Z,964
2016-12-16T05:09:15.499Z,963.97
2016-12-16T05:09:41.487Z,964
2016-12-16T05:10:07.467Z,963.98
2016-12-16T05:10:33.457Z,963.98
2016-12-16T05:10:59.455Z,964.01
2016-12-16T05:11:25.452Z,964.01
2016-12-16T05:11:51.452Z,963.99
2016-12-16T05:12:17.426Z,963.96
2016-12-16T05:12:43.409Z,963.98
2016-12-16T05:13:09.393Z,964.01
2016-12-16T05:13:35.380Z,964.02
2016-12-16T05:14:01.361Z,964.04
2016-12-16T05:14:27.348Z,964.03
2016-12-16T05:14:53.332Z,964
2016-12-16T05:15:19.314Z,964.01
2016-12-16T05:15:45.302Z,964.02
2016-12-16T05:16:11.283Z,964.03
2016-12-16T05:16:37.278Z,964.01
2016-12-16T05:17:03.276Z,964.04
2016-12-16T05:17:29.275Z,964.02
2016-12-16T05:17:55.265Z,964.04
2016-12-16T05:18:21.252Z,964.02
2016-12-16T05:18:47.236Z,964.04
2016-12-16T05:19:13.220Z,964.02
2016-12-16T05:19:39.207Z,964.04
2016-12-16T05:20:05.191Z,964.06
2016-12-16T05:20:31.186Z,964.02
2016-12-16T05:20:57.165Z,964.05
2016-12-16T05:21:23.146Z,964.07
2016-12-16T05:21:49.133Z,964.06
2016-12-16T05:22:15.135Z,964.03
2016-12-16T05:22:41.110Z,964
2016-12-16T05:23:07.102Z,964.07
2016-12-16T05:23:33.089Z,964.06
2016-12-16T05:23:59.102Z,964.09
2016-12-16T05:24:25.087Z,964.1
2016-12-16T05:24:51.075Z,964.09
2016-12-16T05:25:17.060Z,964.06
2016-12-16T05:25:43.045Z,964.08